sensor_id;sensor_type;location;lat;lon;timestamp;P1;durP1;ratioP1;P2;durP2;ratioP2
20161;SDS011;51382;53.180;15.414;2023-05-18T00:09:14;46.90;;;5.70;;
20161;SDS011;51382;53.180;15.414;2023-05-18T00:24:25;59.50;;;7.20;;
20161;SDS011;51382;53.180;15.414;2023-05-18T00:39:37;54.90;;;6.40;;
20161;SDS011;51382;53.180;15.414;2023-05-18T00:54:49;126.80;;;13.10;;
20161;SDS011;51382;53.180;15.414;2023-05-18T01:09:57;59.30;;;7.60;;
20161;SDS011;51382;53.180;15.414;2023-05-18T01:25:20;116.40;;;12.70;;
20161;SDS011;51382;53.180;15.414;2023-05-18T01:40:45;43.70;;;5.20;;
20161;SDS011;51382;53.180;15.414;2023-05-18T01:55:59;144.20;;;14.00;;
20161;SDS011;51382;53.180;15.414;2023-05-18T02:11:11;40.80;;;5.10;;
20161;SDS011;51382;53.180;15.414;2023-05-18T02:26:23;41.20;;;4.80;;
20161;SDS011;51382;53.180;15.414;2023-05-18T02:41:35;36.70;;;4.60;;
20161;SDS011;51382;53.180;15.414;2023-05-18T02:56:46;117.70;;;12.20;;
20161;SDS011;51382;53.180;15.414;2023-05-18T03:12:04;36.50;;;5.70;;
20161;SDS011;51382;53.180;15.414;2023-05-18T03:27:15;46.10;;;5.40;;
20161;SDS011;51382;53.180;15.414;2023-05-18T03:42:27;44.80;;;5.30;;
20161;SDS011;51382;53.180;15.414;2023-05-18T03:57:40;42.60;;;5.20;;
20161;SDS011;51382;53.180;15.414;2023-05-18T04:12:51;26.50;;;3.60;;
20161;SDS011;51382;53.180;15.414;2023-05-18T04:28:03;28.60;;;4.70;;
20161;SDS011;51382;53.180;15.414;2023-05-18T04:43:15;19.20;;;4.50;;
20161;SDS011;51382;53.180;15.414;2023-05-18T04:58:27;39.10;;;5.10;;
20161;SDS011;51382;53.180;15.414;2023-05-18T05:13:39;34.30;;;5.10;;
20161;SDS011;51382;53.180;15.414;2023-05-18T05:28:50;35.40;;;4.90;;
20161;SDS011;51382;53.180;15.414;2023-05-18T05:44:02;26.40;;;4.30;;
20161;SDS011;51382;53.180;15.414;2023-05-18T05:59:13;38.70;;;5.30;;
20161;SDS011;51382;53.180;15.414;2023-05-18T06:14:25;40.00;;;5.60;;
20161;SDS011;51382;53.180;15.414;2023-05-18T06:29:36;52.60;;;7.30;;
20161;SDS011;51382;53.180;15.414;2023-05-18T06:45:17;68.10;;;8.50;;
20161;SDS011;51382;53.180;15.414;2023-05-18T07:00:37;49.30;;;6.20;;
20161;SDS011;51382;53.180;15.414;2023-05-18T07:15:49;78.80;;;16.60;;
20161;SDS011;51382;53.180;15.414;2023-05-18T07:31:01;66.00;;;10.70;;
20161;SDS011;51382;53.180;15.414;2023-05-18T07:46:12;77.20;;;8.80;;
20161;SDS011;51382;53.180;15.414;2023-05-18T08:01:23;60.60;;;7.80;;
20161;SDS011;51382;53.180;15.414;2023-05-18T08:16:37;75.60;;;9.70;;
20161;SDS011;51382;53.180;15.414;2023-05-18T08:31:49;62.60;;;7.90;;
20161;SDS011;51382;53.180;15.414;2023-05-18T08:47:01;57.30;;;7.80;;
20161;SDS011;51382;53.180;15.414;2023-05-18T09:02:13;64.40;;;6.50;;
20161;SDS011;51382;53.180;15.414;2023-05-18T09:17:25;84.30;;;8.30;;
20161;SDS011;51382;53.180;15.414;2023-05-18T09:48:48;51.60;;;4.80;;
20161;SDS011;51382;53.180;15.414;2023-05-18T10:04:04;58.50;;;5.20;;
20161;SDS011;51382;53.180;15.414;2023-05-18T10:19:16;55.70;;;5.20;;
20161;SDS011;51382;53.180;15.414;2023-05-18T10:34:27;57.40;;;5.20;;
20161;SDS011;51382;53.180;15.414;2023-05-18T10:49:40;73.10;;;6.50;;
20161;SDS011;51382;53.180;15.414;2023-05-18T11:04:53;54.70;;;4.80;;
20161;SDS011;51382;53.180;15.414;2023-05-18T11:20:16;53.70;;;5.20;;
20161;SDS011;51382;53.180;15.414;2023-05-18T11:35:28;51.30;;;5.20;;
20161;SDS011;51382;53.180;15.414;2023-05-18T11:50:46;34.30;;;3.00;;
20161;SDS011;51382;53.180;15.414;2023-05-18T12:06:00;54.20;;;6.50;;
20161;SDS011;51382;53.180;15.414;2023-05-18T12:21:12;70.80;;;6.80;;
20161;SDS011;51382;53.180;15.414;2023-05-18T12:36:23;59.20;;;5.70;;
20161;SDS011;51382;53.180;15.414;2023-05-18T12:51:37;56.90;;;5.30;;
20161;SDS011;51382;53.180;15.414;2023-05-18T13:06:49;77.80;;;7.40;;
20161;SDS011;51382;53.180;15.414;2023-05-18T13:22:00;47.20;;;4.80;;
20161;SDS011;51382;53.180;15.414;2023-05-18T13:37:11;49.20;;;6.20;;
20161;SDS011;51382;53.180;15.414;2023-05-18T13:52:23;73.60;;;8.80;;
20161;SDS011;51382;53.180;15.414;2023-05-18T14:07:34;54.40;;;6.90;;
20161;SDS011;51382;53.180;15.414;2023-05-18T14:22:46;52.40;;;7.20;;
20161;SDS011;51382;53.180;15.414;2023-05-18T14:37:57;53.00;;;7.00;;
20161;SDS011;51382;53.180;15.414;2023-05-18T14:53:08;57.40;;;7.20;;
20161;SDS011;51382;53.180;15.414;2023-05-18T15:08:20;44.20;;;5.20;;
20161;SDS011;51382;53.180;15.414;2023-05-18T15:23:31;51.60;;;7.90;;
20161;SDS011;51382;53.180;15.414;2023-05-18T15:38:43;58.70;;;7.30;;
20161;SDS011;51382;53.180;15.414;2023-05-18T15:53:54;45.90;;;6.00;;
20161;SDS011;51382;53.180;15.414;2023-05-18T16:09:06;30.10;;;4.00;;
20161;SDS011;51382;53.180;15.414;2023-05-18T16:24:17;49.80;;;6.20;;
20161;SDS011;51382;53.180;15.414;2023-05-18T16:39:28;60.60;;;7.60;;
20161;SDS011;51382;53.180;15.414;2023-05-18T16:54:34;57.40;;;6.70;;
20161;SDS011;51382;53.180;15.414;2023-05-18T17:09:45;55.10;;;7.10;;
20161;SDS011;51382;53.180;15.414;2023-05-18T17:24:57;54.30;;;7.00;;
20161;SDS011;51382;53.180;15.414;2023-05-18T17:40:10;47.50;;;7.50;;
20161;SDS011;51382;53.180;15.414;2023-05-18T17:55:21;43.80;;;5.80;;
20161;SDS011;51382;53.180;15.414;2023-05-18T18:10:35;93.30;;;10.20;;
20161;SDS011;51382;53.180;15.414;2023-05-18T18:25:46;59.80;;;7.90;;
20161;SDS011;51382;53.180;15.414;2023-05-18T18:40:58;138.00;;;14.30;;
20161;SDS011;51382;53.180;15.414;2023-05-18T18:56:12;58.00;;;7.10;;
20161;SDS011;51382;53.180;15.414;2023-05-18T19:11:24;44.00;;;5.90;;
20161;SDS011;51382;53.180;15.414;2023-05-18T19:26:35;50.80;;;6.40;;
20161;SDS011;51382;53.180;15.414;2023-05-18T19:41:46;57.50;;;8.00;;
20161;SDS011;51382;53.180;15.414;2023-05-18T19:56:53;49.10;;;8.60;;
20161;SDS011;51382;53.180;15.414;2023-05-18T20:12:05;160.10;;;17.40;;
20161;SDS011;51382;53.180;15.414;2023-05-18T20:27:17;47.00;;;8.60;;
20161;SDS011;51382;53.180;15.414;2023-05-18T20:42:31;116.80;;;13.90;;
20161;SDS011;51382;53.180;15.414;2023-05-18T20:57:47;32.70;;;5.70;;
20161;SDS011;51382;53.180;15.414;2023-05-18T21:12:58;63.00;;;8.80;;
20161;SDS011;51382;53.180;15.414;2023-05-18T21:28:10;70.10;;;14.00;;
20161;SDS011;51382;53.180;15.414;2023-05-18T21:43:21;41.30;;;5.60;;
20161;SDS011;51382;53.180;15.414;2023-05-18T21:58:33;42.80;;;5.90;;
20161;SDS011;51382;53.180;15.414;2023-05-18T22:13:44;173.00;;;17.30;;
20161;SDS011;51382;53.180;15.414;2023-05-18T22:28:55;47.10;;;6.80;;
20161;SDS011;51382;53.180;15.414;2023-05-18T22:44:07;70.00;;;12.30;;
20161;SDS011;51382;53.180;15.414;2023-05-18T22:59:18;66.00;;;10.50;;
20161;SDS011;51382;53.180;15.414;2023-05-18T23:14:29;88.00;;;34.30;;
20161;SDS011;51382;53.180;15.414;2023-05-18T23:29:42;111.30;;;43.60;;
20161;SDS011;51382;53.180;15.414;2023-05-18T23:44:54;231.10;;;48.30;;
